sensor_id;sensor_type;location;lat;lon;timestamp;pressure;altitude;pressure_sealevel;temperature;humidity
23953;BME280;12163;49.316;6.092;2022-08-19T00:01:24;99133.56;;;22.34;53.67
23953;BME280;12163;49.316;6.092;2022-08-19T00:03:58;99138.25;;;22.33;53.86
23953;BME280;12163;49.316;6.092;2022-08-19T00:06:26;99139.06;;;22.34;53.78
23953;BME280;12163;49.316;6.092;2022-08-19T00:08:53;99133.56;;;22.34;53.78
23953;BME280;12163;49.316;6.092;2022-08-19T00:11:20;99137.84;;;22.31;53.80
23953;BME280;12163;49.316;6.092;2022-08-19T00:13:51;99133.88;;;22.29;53.91
23953;BME280;12163;49.316;6.092;2022-08-19T00:16:18;99128.75;;;22.27;54.06
23953;BME280;12163;49.316;6.092;2022-08-19T00:18:53;99131.09;;;22.26;54.02
23953;BME280;12163;49.316;6.092;2022-08-19T00:21:19;99125.53;;;22.22;54.42
23953;BME280;12163;49.316;6.092;2022-08-19T00:23:46;99133.00;;;22.22;54.50
23953;BME280;12163;49.316;6.092;2022-08-19T00:26:13;99127.06;;;22.20;54.33
23953;BME280;12163;49.316;6.092;2022-08-19T00:28:40;99130.97;;;22.19;54.49
23953;BME280;12163;49.316;6.092;2022-08-19T00:31:09;99123.88;;;22.18;54.63
23953;BME280;12163;49.316;6.092;2022-08-19T00:33:35;99129.81;;;22.20;54.54
23953;BME280;12163;49.316;6.092;2022-08-19T00:36:05;99121.56;;;22.20;54.49
23953;BME280;12163;49.316;6.092;2022-08-19T00:38:36;99123.16;;;22.21;54.57
23953;BME280;12163;49.316;6.092;2022-08-19T00:41:07;99112.94;;;22.21;54.41
23953;BME280;12163;49.316;6.092;2022-08-19T00:43:34;99118.88;;;22.23;54.58
23953;BME280;12163;49.316;6.092;2022-08-19T00:46:00;99108.69;;;22.24;54.65
23953;BME280;12163;49.316;6.092;2022-08-19T00:48:32;99106.34;;;22.26;54.26
23953;BME280;12163;49.316;6.092;2022-08-19T00:50:59;99110.28;;;22.28;54.58
23953;BME280;12163;49.316;6.092;2022-08-19T00:53:28;99096.53;;;22.28;54.49
23953;BME280;12163;49.316;6.092;2022-08-19T00:55:58;99092.22;;;22.27;54.66
23953;BME280;12163;49.316;6.092;2022-08-19T00:58:30;99102.84;;;22.28;54.39
23953;BME280;12163;49.316;6.092;2022-08-19T01:00:59;99106.00;;;22.30;54.38
23953;BME280;12163;49.316;6.092;2022-08-19T01:03:27;99116.25;;;22.33;54.43
23953;BME280;12163;49.316;6.092;2022-08-19T01:06:14;99107.59;;;22.31;54.16
23953;BME280;12163;49.316;6.092;2022-08-19T01:08:45;99108.44;;;22.35;54.48
23953;BME280;12163;49.316;6.092;2022-08-19T01:11:15;99109.25;;;22.36;54.11
23953;BME280;12163;49.316;6.092;2022-08-19T01:13:42;99099.41;;;22.35;54.12
23953;BME280;12163;49.316;6.092;2022-08-19T01:16:17;99098.19;;;22.32;54.66
23953;BME280;12163;49.316;6.092;2022-08-19T01:18:45;99096.97;;;22.30;54.64
23953;BME280;12163;49.316;6.092;2022-08-19T01:21:33;99088.69;;;22.27;54.46
23953;BME280;12163;49.316;6.092;2022-08-19T01:24:01;99094.19;;;22.27;54.50
23953;BME280;12163;49.316;6.092;2022-08-19T01:26:28;99096.50;;;22.25;54.59
23953;BME280;12163;49.316;6.092;2022-08-19T01:28:58;99094.94;;;22.24;54.83
23953;BME280;12163;49.316;6.092;2022-08-19T01:31:28;99083.94;;;22.24;54.96
23953;BME280;12163;49.316;6.092;2022-08-19T01:33:58;99092.19;;;22.24;54.64
23953;BME280;12163;49.316;6.092;2022-08-19T01:36:38;99091.38;;;22.23;54.79
23953;BME280;12163;49.316;6.092;2022-08-19T01:39:11;99097.97;;;22.19;55.05
23953;BME280;12163;49.316;6.092;2022-08-19T01:41:38;99114.06;;;22.17;55.39
23953;BME280;12163;49.316;6.092;2022-08-19T01:44:08;99102.22;;;22.13;54.96
23953;BME280;12163;49.316;6.092;2022-08-19T01:46:45;99100.97;;;22.07;55.18
23953;BME280;12163;49.316;6.092;2022-08-19T01:49:13;99103.31;;;22.05;55.24
23953;BME280;12163;49.316;6.092;2022-08-19T01:51:40;99104.03;;;22.02;56.06
23953;BME280;12163;49.316;6.092;2022-08-19T01:54:09;99102.03;;;21.99;55.66
23953;BME280;12163;49.316;6.092;2022-08-19T01:56:36;99100.00;;;21.96;55.64
23953;BME280;12163;49.316;6.092;2022-08-19T01:59:08;99110.97;;;21.92;56.11
23953;BME280;12163;49.316;6.092;2022-08-19T02:01:36;99102.25;;;21.87;56.13
23953;BME280;12163;49.316;6.092;2022-08-19T02:04:03;99103.00;;;21.84;56.05
23953;BME280;12163;49.316;6.092;2022-08-19T02:06:30;99100.66;;;21.86;56.27
23953;BME280;12163;49.316;6.092;2022-08-19T02:08:56;99106.91;;;21.83;56.46
23953;BME280;12163;49.316;6.092;2022-08-19T02:11:27;99110.81;;;21.82;56.43
23953;BME280;12163;49.316;6.092;2022-08-19T02:13:58;99113.56;;;21.82;56.65
23953;BME280;12163;49.316;6.092;2022-08-19T02:16:25;99114.72;;;21.81;56.25
23953;BME280;12163;49.316;6.092;2022-08-19T02:18:51;99111.53;;;21.79;56.49
23953;BME280;12163;49.316;6.092;2022-08-19T02:21:20;99108.00;;;21.78;56.86
23953;BME280;12163;49.316;6.092;2022-08-19T02:23:48;99103.66;;;21.77;56.61
23953;BME280;12163;49.316;6.092;2022-08-19T02:26:15;99111.47;;;21.75;56.70
23953;BME280;12163;49.316;6.092;2022-08-19T02:28:43;99101.31;;;21.76;56.83
23953;BME280;12163;49.316;6.092;2022-08-19T02:31:15;99102.81;;;21.73;56.84
23953;BME280;12163;49.316;6.092;2022-08-19T02:33:42;99110.25;;;21.73;57.09
23953;BME280;12163;49.316;6.092;2022-08-19T02:36:10;99112.22;;;21.72;57.23
23953;BME280;12163;49.316;6.092;2022-08-19T02:38:41;99110.25;;;21.73;57.03
23953;BME280;12163;49.316;6.092;2022-08-19T02:41:32;99119.97;;;21.67;57.06
23953;BME280;12163;49.316;6.092;2022-08-19T02:44:01;99123.53;;;21.67;57.22
23953;BME280;12163;49.316;6.092;2022-08-19T02:46:48;99127.78;;;21.65;57.32
23953;BME280;12163;49.316;6.092;2022-08-19T02:49:18;99131.69;;;21.64;57.55
23953;BME280;12163;49.316;6.092;2022-08-19T02:51:45;99124.63;;;21.63;57.59
23953;BME280;12163;49.316;6.092;2022-08-19T02:54:13;99130.13;;;21.63;57.55
23953;BME280;12163;49.316;6.092;2022-08-19T02:56:40;99135.59;;;21.63;57.84
23953;BME280;12163;49.316;6.092;2022-08-19T02:59:08;99130.13;;;21.63;57.91
23953;BME280;12163;49.316;6.092;2022-08-19T03:01:38;99126.09;;;21.60;57.88
23953;BME280;12163;49.316;6.092;2022-08-19T03:04:08;99126.91;;;21.61;58.03
23953;BME280;12163;49.316;6.092;2022-08-19T03:06:37;99131.97;;;21.59;58.39
23953;BME280;12163;49.316;6.092;2022-08-19T03:09:04;99125.69;;;21.58;58.12
23953;BME280;12163;49.316;6.092;2022-08-19T03:11:32;99123.31;;;21.57;58.22
23953;BME280;12163;49.316;6.092;2022-08-19T03:14:01;99129.09;;;21.52;58.34
23953;BME280;12163;49.316;6.092;2022-08-19T03:16:29;99122.75;;;21.48;58.89
23953;BME280;12163;49.316;6.092;2022-08-19T03:18:59;99129.78;;;21.45;58.58
23953;BME280;12163;49.316;6.092;2022-08-19T03:21:29;99124.66;;;21.44;58.80
23953;BME280;12163;49.316;6.092;2022-08-19T03:24:07;99136.81;;;21.43;59.09
23953;BME280;12163;49.316;6.092;2022-08-19T03:26:34;99135.22;;;21.42;58.86
23953;BME280;12163;49.316;6.092;2022-08-19T03:29:04;99148.13;;;21.41;58.93
23953;BME280;12163;49.316;6.092;2022-08-19T03:31:31;99134.78;;;21.40;58.89
23953;BME280;12163;49.316;6.092;2022-08-19T03:34:20;99138.25;;;21.37;59.14
23953;BME280;12163;49.316;6.092;2022-08-19T03:36:47;99140.16;;;21.33;59.42
23953;BME280;12163;49.316;6.092;2022-08-19T03:39:15;99138.50;;;21.28;59.39
23953;BME280;12163;49.316;6.092;2022-08-19T03:41:43;99138.06;;;21.26;59.58
23953;BME280;12163;49.316;6.092;2022-08-19T03:44:14;99140.25;;;21.17;59.34
23953;BME280;12163;49.316;6.092;2022-08-19T03:46:45;99146.25;;;21.23;59.69
23953;BME280;12163;49.316;6.092;2022-08-19T03:49:12;99136.50;;;21.25;59.69
23953;BME280;12163;49.316;6.092;2022-08-19T03:51:41;99142.03;;;21.29;59.48
23953;BME280;12163;49.316;6.092;2022-08-19T03:54:11;99139.28;;;21.29;59.98
23953;BME280;12163;49.316;6.092;2022-08-19T03:56:41;99140.44;;;21.28;59.97
23953;BME280;12163;49.316;6.092;2022-08-19T03:59:11;99138.94;;;21.30;59.82
23953;BME280;12163;49.316;6.092;2022-08-19T04:01:37;99140.50;;;21.31;59.72
23953;BME280;12163;49.316;6.092;2022-08-19T04:04:04;99137.41;;;21.33;59.85
23953;BME280;12163;49.316;6.092;2022-08-19T04:06:34;99142.91;;;21.33;59.73
23953;BME280;12163;49.316;6.092;2022-08-19T04:09:07;99136.97;;;21.31;60.22
23953;BME280;12163;49.316;6.092;2022-08-19T04:11:41;99147.09;;;21.27;60.01
23953;BME280;12163;49.316;6.092;2022-08-19T04:14:19;99150.56;;;21.24;60.07
23953;BME280;12163;49.316;6.092;2022-08-19T04:16:47;99153.72;;;21.26;60.18
23953;BME280;12163;49.316;6.092;2022-08-19T04:19:15;99148.63;;;21.24;60.45
23953;BME280;12163;49.316;6.092;2022-08-19T04:21:45;99149.41;;;21.25;60.47
23953;BME280;12163;49.316;6.092;2022-08-19T04:24:12;99147.91;;;21.27;60.36
23953;BME280;12163;49.316;6.092;2022-08-19T04:26:39;99151.41;;;21.28;60.13
23953;BME280;12163;49.316;6.092;2022-08-19T04:29:18;99153.31;;;21.24;60.39
23953;BME280;12163;49.316;6.092;2022-08-19T04:31:48;99156.00;;;21.20;60.70
23953;BME280;12163;49.316;6.092;2022-08-19T04:34:18;99157.44;;;21.14;60.84
23953;BME280;12163;49.316;6.092;2022-08-19T04:36:49;99162.16;;;21.14;60.94
23953;BME280;12163;49.316;6.092;2022-08-19T04:39:21;99163.66;;;21.11;61.10
23953;BME280;12163;49.316;6.092;2022-08-19T04:41:48;99159.72;;;21.09;60.86
23953;BME280;12163;49.316;6.092;2022-08-19T04:44:35;99158.91;;;21.08;61.06
23953;BME280;12163;49.316;6.092;2022-08-19T04:47:11;99162.00;;;21.07;60.94
23953;BME280;12163;49.316;6.092;2022-08-19T04:49:38;99158.81;;;21.05;61.30
23953;BME280;12163;49.316;6.092;2022-08-19T04:52:05;99169.81;;;21.05;60.97
23953;BME280;12163;49.316;6.092;2022-08-19T04:54:31;99165.47;;;21.04;61.14
23953;BME280;12163;49.316;6.092;2022-08-19T04:57:06;99167.44;;;21.03;61.40
23953;BME280;12163;49.316;6.092;2022-08-19T04:59:34;99171.53;;;21.13;61.23
23953;BME280;12163;49.316;6.092;2022-08-19T05:02:01;99169.63;;;21.58;60.68
23953;BME280;12163;49.316;6.092;2022-08-19T05:04:28;99169.44;;;21.93;59.46
23953;BME280;12163;49.316;6.092;2022-08-19T05:06:59;99172.31;;;22.26;58.42
23953;BME280;12163;49.316;6.092;2022-08-19T05:09:28;99170.75;;;22.50;57.92
23953;BME280;12163;49.316;6.092;2022-08-19T05:12:15;99174.56;;;22.72;57.87
23953;BME280;12163;49.316;6.092;2022-08-19T05:14:42;99170.75;;;22.83;57.59
23953;BME280;12163;49.316;6.092;2022-08-19T05:17:09;99173.75;;;23.01;57.08
23953;BME280;12163;49.316;6.092;2022-08-19T05:19:54;99177.09;;;23.17;56.48
23953;BME280;12163;49.316;6.092;2022-08-19T05:22:40;99173.31;;;23.32;55.87
23953;BME280;12163;49.316;6.092;2022-08-19T05:25:10;99168.28;;;23.37;55.70
23953;BME280;12163;49.316;6.092;2022-08-19T05:27:40;99164.81;;;23.47;55.35
23953;BME280;12163;49.316;6.092;2022-08-19T05:30:07;99169.66;;;23.57;54.92
23953;BME280;12163;49.316;6.092;2022-08-19T05:32:34;99172.84;;;23.63;55.04
23953;BME280;12163;49.316;6.092;2022-08-19T05:35:00;99173.38;;;23.75;54.51
23953;BME280;12163;49.316;6.092;2022-08-19T05:37:27;99168.78;;;23.90;53.89
23953;BME280;12163;49.316;6.092;2022-08-19T05:39:54;99174.03;;;24.05;53.47
23953;BME280;12163;49.316;6.092;2022-08-19T05:42:22;99175.69;;;24.16;53.19
23953;BME280;12163;49.316;6.092;2022-08-19T05:44:50;99181.28;;;24.30;53.20
23953;BME280;12163;49.316;6.092;2022-08-19T05:47:18;99192.38;;;24.41;52.71
23953;BME280;12163;49.316;6.092;2022-08-19T05:49:46;99182.59;;;24.47;52.40
23953;BME280;12163;49.316;6.092;2022-08-19T05:52:14;99184.94;;;24.45;52.10
23953;BME280;12163;49.316;6.092;2022-08-19T05:54:51;99189.34;;;24.53;52.02
23953;BME280;12163;49.316;6.092;2022-08-19T05:57:21;99185.03;;;24.55;51.87
23953;BME280;12163;49.316;6.092;2022-08-19T05:59:48;99194.91;;;24.56;51.82
23953;BME280;12163;49.316;6.092;2022-08-19T06:02:26;99200.31;;;24.46;51.52
23953;BME280;12163;49.316;6.092;2022-08-19T06:04:53;99197.81;;;24.27;51.98
23953;BME280;12163;49.316;6.092;2022-08-19T06:07:20;99197.19;;;23.97;52.68
23953;BME280;12163;49.316;6.092;2022-08-19T06:09:47;99206.00;;;23.73;53.51
23953;BME280;12163;49.316;6.092;2022-08-19T06:12:30;99198.53;;;23.74;53.56
23953;BME280;12163;49.316;6.092;2022-08-19T06:15:00;99211.06;;;23.68;53.78
23953;BME280;12163;49.316;6.092;2022-08-19T06:17:29;99207.47;;;23.64;53.99
23953;BME280;12163;49.316;6.092;2022-08-19T06:19:57;99199.47;;;23.48;54.70
23953;BME280;12163;49.316;6.092;2022-08-19T06:22:25;99207.31;;;23.46;54.69
23953;BME280;12163;49.316;6.092;2022-08-19T06:24:52;99208.00;;;23.36;55.08
23953;BME280;12163;49.316;6.092;2022-08-19T06:27:21;99207.34;;;23.50;54.85
23953;BME280;12163;49.316;6.092;2022-08-19T06:29:48;99216.75;;;23.45;54.93
23953;BME280;12163;49.316;6.092;2022-08-19T06:32:16;99222.19;;;23.38;55.46
23953;BME280;12163;49.316;6.092;2022-08-19T06:34:44;99219.94;;;23.51;54.99
23953;BME280;12163;49.316;6.092;2022-08-19T06:37:11;99222.25;;;23.45;54.87
23953;BME280;12163;49.316;6.092;2022-08-19T06:39:40;99228.50;;;23.42;54.80
23953;BME280;12163;49.316;6.092;2022-08-19T06:42:08;99222.28;;;23.49;54.80
23953;BME280;12163;49.316;6.092;2022-08-19T06:44:39;99225.81;;;23.49;54.86
23953;BME280;12163;49.316;6.092;2022-08-19T06:47:11;99218.38;;;23.50;54.75
23953;BME280;12163;49.316;6.092;2022-08-19T06:49:40;99225.56;;;23.61;54.26
23953;BME280;12163;49.316;6.092;2022-08-19T06:52:08;99231.50;;;23.63;54.24
23953;BME280;12163;49.316;6.092;2022-08-19T06:54:40;99233.91;;;23.68;54.33
23953;BME280;12163;49.316;6.092;2022-08-19T06:57:23;99237.94;;;23.78;53.95
23953;BME280;12163;49.316;6.092;2022-08-19T06:59:51;99239.94;;;23.81;54.07
23953;BME280;12163;49.316;6.092;2022-08-19T07:02:18;99246.69;;;23.83;53.70
23953;BME280;12163;49.316;6.092;2022-08-19T07:04:45;99245.56;;;23.88;53.78
23953;BME280;12163;49.316;6.092;2022-08-19T07:07:14;99257.00;;;23.93;53.67
23953;BME280;12163;49.316;6.092;2022-08-19T07:09:47;99244.88;;;24.01;53.39
23953;BME280;12163;49.316;6.092;2022-08-19T07:12:26;99249.69;;;24.11;53.23
23953;BME280;12163;49.316;6.092;2022-08-19T07:14:55;99242.72;;;24.24;52.94
23953;BME280;12163;49.316;6.092;2022-08-19T07:17:23;99248.38;;;24.45;52.55
23953;BME280;12163;49.316;6.092;2022-08-19T07:19:50;99244.13;;;24.51;52.31
23953;BME280;12163;49.316;6.092;2022-08-19T07:22:20;99241.34;;;24.51;52.27
23953;BME280;12163;49.316;6.092;2022-08-19T07:24:50;99252.06;;;24.63;51.95
23953;BME280;12163;49.316;6.092;2022-08-19T07:27:17;99245.81;;;24.69;51.96
23953;BME280;12163;49.316;6.092;2022-08-19T07:29:52;99247.03;;;24.79;51.64
23953;BME280;12163;49.316;6.092;2022-08-19T07:32:22;99247.88;;;24.86;51.59
23953;BME280;12163;49.316;6.092;2022-08-19T07:34:49;99253.47;;;25.00;50.86
23953;BME280;12163;49.316;6.092;2022-08-19T07:37:15;99249.94;;;25.07;51.12
23953;BME280;12163;49.316;6.092;2022-08-19T07:39:42;99253.59;;;25.18;50.94
23953;BME280;12163;49.316;6.092;2022-08-19T07:42:10;99254.41;;;25.25;50.25
23953;BME280;12163;49.316;6.092;2022-08-19T07:44:39;99257.16;;;25.25;50.64
23953;BME280;12163;49.316;6.092;2022-08-19T07:47:11;99254.44;;;25.36;50.16
23953;BME280;12163;49.316;6.092;2022-08-19T07:49:59;99252.50;;;25.47;49.70
23953;BME280;12163;49.316;6.092;2022-08-19T07:52:26;99242.69;;;25.67;49.54
23953;BME280;12163;49.316;6.092;2022-08-19T07:54:52;99250.66;;;25.86;48.13
23953;BME280;12163;49.316;6.092;2022-08-19T07:57:19;99257.72;;;25.80;48.37
23953;BME280;12163;49.316;6.092;2022-08-19T07:59:45;99245.84;;;25.69;48.71
23953;BME280;12163;49.316;6.092;2022-08-19T08:02:12;99250.63;;;25.79;48.18
23953;BME280;12163;49.316;6.092;2022-08-19T08:04:39;99243.47;;;25.67;48.46
23953;BME280;12163;49.316;6.092;2022-08-19T08:07:24;99251.75;;;25.60;48.96
23953;BME280;12163;49.316;6.092;2022-08-19T08:10:12;99256.47;;;25.56;48.37
23953;BME280;12163;49.316;6.092;2022-08-19T08:12:47;99245.00;;;25.51;48.74
23953;BME280;12163;49.316;6.092;2022-08-19T08:15:34;99238.69;;;25.50;48.98
23953;BME280;12163;49.316;6.092;2022-08-19T08:18:07;99242.66;;;25.56;48.83
23953;BME280;12163;49.316;6.092;2022-08-19T08:20:34;99245.03;;;25.58;48.53
23953;BME280;12163;49.316;6.092;2022-08-19T08:23:01;99238.72;;;25.61;48.52
23953;BME280;12163;49.316;6.092;2022-08-19T08:25:46;99245.06;;;25.75;48.55
23953;BME280;12163;49.316;6.092;2022-08-19T08:28:18;99238.78;;;25.89;47.78
23953;BME280;12163;49.316;6.092;2022-08-19T08:30:47;99250.66;;;25.96;48.08
23953;BME280;12163;49.316;6.092;2022-08-19T08:33:21;99241.97;;;26.01;47.73
23953;BME280;12163;49.316;6.092;2022-08-19T08:36:10;99253.81;;;26.08;47.38
23953;BME280;12163;49.316;6.092;2022-08-19T08:38:37;99252.25;;;26.11;46.74
23953;BME280;12163;49.316;6.092;2022-08-19T08:45:12;99260.94;;;26.23;47.10
23953;BME280;12163;49.316;6.092;2022-08-19T08:47:16;99259.34;;;26.26;46.79
23953;BME280;12163;49.316;6.092;2022-08-19T08:49:54;99255.41;;;26.23;46.83
23953;BME280;12163;49.316;6.092;2022-08-19T08:52:29;99248.28;;;26.26;46.93
23953;BME280;12163;49.316;6.092;2022-08-19T08:55:17;99256.59;;;26.43;46.62
23953;BME280;12163;49.316;6.092;2022-08-19T09:00:20;99250.66;;;26.62;45.88
23953;BME280;12163;49.316;6.092;2022-08-19T09:02:47;99248.25;;;26.78;46.00
23953;BME280;12163;49.316;6.092;2022-08-19T09:05:17;99247.38;;;27.02;45.75
23953;BME280;12163;49.316;6.092;2022-08-19T09:08:02;99246.94;;;27.21;45.09
23953;BME280;12163;49.316;6.092;2022-08-19T09:10:39;99244.22;;;27.14;44.86
23953;BME280;12163;49.316;6.092;2022-08-19T09:13:34;99245.06;;;26.90;45.61
23953;BME280;12163;49.316;6.092;2022-08-19T09:16:10;99243.88;;;26.88;45.72
23953;BME280;12163;49.316;6.092;2022-08-19T09:18:48;99241.50;;;26.93;45.89
23953;BME280;12163;49.316;6.092;2022-08-19T09:21:15;99238.69;;;26.97;45.86
23953;BME280;12163;49.316;6.092;2022-08-19T09:23:42;99233.56;;;26.99;45.96
23953;BME280;12163;49.316;6.092;2022-08-19T09:26:12;99233.53;;;27.06;45.69
23953;BME280;12163;49.316;6.092;2022-08-19T09:28:43;99240.66;;;27.03;45.35
23953;BME280;12163;49.316;6.092;2022-08-19T09:31:16;99234.38;;;26.92;45.45
23953;BME280;12163;49.316;6.092;2022-08-19T09:33:43;99238.72;;;26.93;45.31
23953;BME280;12163;49.316;6.092;2022-08-19T09:36:16;99233.94;;;26.97;45.27
23953;BME280;12163;49.316;6.092;2022-08-19T09:39:00;99231.53;;;27.06;44.98
23953;BME280;12163;49.316;6.092;2022-08-19T09:41:27;99237.09;;;26.99;44.79
23953;BME280;12163;49.316;6.092;2022-08-19T09:43:56;99236.34;;;26.92;44.64
23953;BME280;12163;49.316;6.092;2022-08-19T09:46:26;99239.91;;;26.92;44.99
23953;BME280;12163;49.316;6.092;2022-08-19T09:48:57;99241.91;;;26.88;45.12
23953;BME280;12163;49.316;6.092;2022-08-19T09:51:32;99243.88;;;26.84;45.55
23953;BME280;12163;49.316;6.092;2022-08-19T09:54:04;99244.69;;;26.71;46.09
23953;BME280;12163;49.316;6.092;2022-08-19T09:56:31;99240.38;;;26.66;46.56
23953;BME280;12163;49.316;6.092;2022-08-19T09:59:01;99251.84;;;26.61;46.95
23953;BME280;12163;49.316;6.092;2022-08-19T10:01:30;99246.31;;;26.68;46.73
23953;BME280;12163;49.316;6.092;2022-08-19T10:03:59;99257.00;;;26.52;46.14
23953;BME280;12163;49.316;6.092;2022-08-19T10:06:28;99259.75;;;26.38;46.06
23953;BME280;12163;49.316;6.092;2022-08-19T10:09:12;99247.91;;;26.27;46.87
23953;BME280;12163;49.316;6.092;2022-08-19T10:11:40;99250.66;;;26.27;47.25
23953;BME280;12163;49.316;6.092;2022-08-19T10:14:18;99249.88;;;26.30;47.39
23953;BME280;12163;49.316;6.092;2022-08-19T10:16:49;99253.44;;;26.31;47.17
23953;BME280;12163;49.316;6.092;2022-08-19T10:19:15;99249.84;;;26.37;47.45
23953;BME280;12163;49.316;6.092;2022-08-19T10:21:52;99255.41;;;26.48;47.66
23953;BME280;12163;49.316;6.092;2022-08-19T10:24:18;99242.38;;;26.55;47.20
23953;BME280;12163;49.316;6.092;2022-08-19T10:26:47;99260.94;;;26.62;46.84
23953;BME280;12163;49.316;6.092;2022-08-19T10:29:22;99251.84;;;26.61;46.83
23953;BME280;12163;49.316;6.092;2022-08-19T10:32:00;99239.56;;;26.62;47.56
23953;BME280;12163;49.316;6.092;2022-08-19T10:34:29;99255.38;;;26.69;47.84
23953;BME280;12163;49.316;6.092;2022-08-19T10:36:57;99247.09;;;26.62;46.88
23953;BME280;12163;49.316;6.092;2022-08-19T10:39:30;99247.09;;;26.65;46.70
23953;BME280;12163;49.316;6.092;2022-08-19T10:42:07;99229.31;;;26.66;46.88
23953;BME280;12163;49.316;6.092;2022-08-19T10:44:36;99247.06;;;26.83;46.63
23953;BME280;12163;49.316;6.092;2022-08-19T10:47:04;99249.44;;;26.77;45.76
23953;BME280;12163;49.316;6.092;2022-08-19T10:49:43;99248.25;;;26.78;46.22
23953;BME280;12163;49.316;6.092;2022-08-19T10:52:28;99253.00;;;26.74;45.96
23953;BME280;12163;49.316;6.092;2022-08-19T10:55:05;99255.81;;;26.67;44.82
23953;BME280;12163;49.316;6.092;2022-08-19T10:57:55;99241.16;;;26.63;46.18
23953;BME280;12163;49.316;6.092;2022-08-19T11:00:28;99255.41;;;26.58;45.47
23953;BME280;12163;49.316;6.092;2022-08-19T11:02:57;99261.75;;;26.48;45.81
23953;BME280;12163;49.316;6.092;2022-08-19T11:05:23;99250.25;;;26.46;46.36
23953;BME280;12163;49.316;6.092;2022-08-19T11:07:50;99249.88;;;26.51;44.49
23953;BME280;12163;49.316;6.092;2022-08-19T11:10:18;99253.03;;;26.46;45.52
23953;BME280;12163;49.316;6.092;2022-08-19T11:12:47;99258.97;;;26.55;45.87
23953;BME280;12163;49.316;6.092;2022-08-19T11:15:14;99259.75;;;26.66;45.41
23953;BME280;12163;49.316;6.092;2022-08-19T11:17:42;99257.34;;;26.75;45.01
23953;BME280;12163;49.316;6.092;2022-08-19T11:20:14;99244.28;;;26.86;44.27
23953;BME280;12163;49.316;6.092;2022-08-19T11:22:41;99248.63;;;26.87;44.05
23953;BME280;12163;49.316;6.092;2022-08-19T11:25:10;99251.41;;;26.87;44.29
23953;BME280;12163;49.316;6.092;2022-08-19T11:27:40;99248.25;;;26.78;43.96
23953;BME280;12163;49.316;6.092;2022-08-19T11:30:11;99251.41;;;26.84;42.40
23953;BME280;12163;49.316;6.092;2022-08-19T11:32:40;99253.72;;;26.99;41.07
23953;BME280;12163;49.316;6.092;2022-08-19T11:35:12;99249.75;;;27.00;39.81
23953;BME280;12163;49.316;6.092;2022-08-19T11:37:39;99246.59;;;27.12;40.26
23953;BME280;12163;49.316;6.092;2022-08-19T11:40:07;99245.28;;;27.38;39.26
23953;BME280;12163;49.316;6.092;2022-08-19T11:42:34;99258.00;;;27.28;38.47
23953;BME280;12163;49.316;6.092;2022-08-19T11:45:19;99251.28;;;27.22;39.78
23953;BME280;12163;49.316;6.092;2022-08-19T11:47:46;99237.06;;;27.24;39.19
23953;BME280;12163;49.316;6.092;2022-08-19T11:50:15;99250.06;;;27.37;39.61
23953;BME280;12163;49.316;6.092;2022-08-19T11:52:42;99247.22;;;27.44;39.64
23953;BME280;12163;49.316;6.092;2022-08-19T11:55:11;99258.28;;;27.55;38.37
23953;BME280;12163;49.316;6.092;2022-08-19T11:57:39;99248.81;;;27.45;38.97
23953;BME280;12163;49.316;6.092;2022-08-19T12:00:08;99251.28;;;27.22;38.36
23953;BME280;12163;49.316;6.092;2022-08-19T12:02:36;99242.19;;;27.25;38.84
23953;BME280;12163;49.316;6.092;2022-08-19T12:05:03;99246.41;;;27.54;38.09
23953;BME280;12163;49.316;6.092;2022-08-19T12:07:34;99249.47;;;27.70;37.57
23953;BME280;12163;49.316;6.092;2022-08-19T12:10:01;99238.81;;;27.65;38.34
23953;BME280;12163;49.316;6.092;2022-08-19T12:12:29;99252.63;;;27.76;36.81
23953;BME280;12163;49.316;6.092;2022-08-19T12:14:55;99246.69;;;27.77;36.32
23953;BME280;12163;49.316;6.092;2022-08-19T12:17:25;99243.91;;;27.77;35.66
23953;BME280;12163;49.316;6.092;2022-08-19T12:19:53;99240.38;;;27.66;35.76
23953;BME280;12163;49.316;6.092;2022-08-19T12:22:20;99244.81;;;27.53;34.03
23953;BME280;12163;49.316;6.092;2022-08-19T12:24:47;99230.53;;;27.58;34.62
23953;BME280;12163;49.316;6.092;2022-08-19T12:27:17;99230.03;;;27.70;35.28
23953;BME280;12163;49.316;6.092;2022-08-19T12:30:05;99233.94;;;27.86;36.17
23953;BME280;12163;49.316;6.092;2022-08-19T12:32:32;99234.28;;;27.92;36.27
23953;BME280;12163;49.316;6.092;2022-08-19T12:34:59;99233.75;;;28.07;35.99
23953;BME280;12163;49.316;6.092;2022-08-19T12:37:25;99222.56;;;28.21;36.51
23953;BME280;12163;49.316;6.092;2022-08-19T12:39:52;99226.44;;;28.34;36.89
23953;BME280;12163;49.316;6.092;2022-08-19T12:42:19;99226.84;;;28.33;37.34
23953;BME280;12163;49.316;6.092;2022-08-19T12:44:48;99217.97;;;28.01;38.13
23953;BME280;12163;49.316;6.092;2022-08-19T12:47:14;99230.38;;;27.86;38.39
23953;BME280;12163;49.316;6.092;2022-08-19T12:49:41;99223.25;;;27.85;38.50
23953;BME280;12163;49.316;6.092;2022-08-19T12:52:24;99212.84;;;27.99;38.37
23953;BME280;12163;49.316;6.092;2022-08-19T12:54:53;99222.25;;;28.12;38.40
23953;BME280;12163;49.316;6.092;2022-08-19T12:57:22;99224.56;;;28.21;38.48
23953;BME280;12163;49.316;6.092;2022-08-19T13:00:00;99219.00;;;28.21;38.11
23953;BME280;12163;49.316;6.092;2022-08-19T13:02:26;99217.84;;;28.15;38.38
23953;BME280;12163;49.316;6.092;2022-08-19T13:04:53;99216.72;;;28.09;38.73
23953;BME280;12163;49.316;6.092;2022-08-19T13:07:20;99225.41;;;28.11;38.63
23953;BME280;12163;49.316;6.092;2022-08-19T13:09:46;99230.97;;;28.11;38.43
23953;BME280;12163;49.316;6.092;2022-08-19T13:12:13;99220.75;;;28.01;38.75
23953;BME280;12163;49.316;6.092;2022-08-19T13:14:40;99223.78;;;28.17;38.67
23953;BME280;12163;49.316;6.092;2022-08-19T13:17:10;99214.53;;;28.37;38.66
23953;BME280;12163;49.316;6.092;2022-08-19T13:19:37;99213.28;;;28.42;37.89
23953;BME280;12163;49.316;6.092;2022-08-19T13:22:06;99209.16;;;28.57;38.32
23953;BME280;12163;49.316;6.092;2022-08-19T13:24:40;99224.03;;;28.77;38.04